createdAt,value
2022-10-25T00:01:57.827Z,19.08
2022-10-25T00:03:59.577Z,18.20
2022-10-25T00:06:01.824Z,18.50
2022-10-25T00:08:03.519Z,19.33
2022-10-25T00:10:06.339Z,19.43
2022-10-25T00:12:08.799Z,17.95
2022-10-25T00:14:15.870Z,18.52
2022-10-25T00:16:21.063Z,18.48
2022-10-25T00:18:23.370Z,19.52
2022-10-25T00:20:25.311Z,19.38
2022-10-25T00:22:29.305Z,19.13
2022-10-25T00:24:31.237Z,18.95
2022-10-25T00:26:34.483Z,20.90
2022-10-25T00:28:36.284Z,20.13
2022-10-25T00:30:38.263Z,20.20
2022-10-25T00:32:39.997Z,19.67
2022-10-25T00:34:41.841Z,19.63
2022-10-25T00:36:43.729Z,19.83
2022-10-25T00:38:46.340Z,19.20
2022-10-25T00:40:48.202Z,18.45
2022-10-25T00:42:50.175Z,18.27
2022-10-25T00:44:53.600Z,18.67
2022-10-25T00:46:55.585Z,17.60
2022-10-25T00:49:10.746Z,17.33
2022-10-25T00:51:12.521Z,17.50
2022-10-25T00:53:20.373Z,16.95
2022-10-25T00:55:26.147Z,18.35
2022-10-25T00:57:34.600Z,17.45
2022-10-25T00:59:37.436Z,17.98
2022-10-25T01:01:39.640Z,17.17
2022-10-25T01:03:44.564Z,17.08
2022-10-25T01:05:47.226Z,17.98
2022-10-25T01:07:49.463Z,17.67
2022-10-25T01:09:51.495Z,17.30
2022-10-25T01:11:53.167Z,17.10
2022-10-25T01:13:56.400Z,17.15
2022-10-25T01:18:17.616Z,17.75
2022-10-25T01:20:57.725Z,16.77
2022-10-25T01:23:19.437Z,16.00
2022-10-25T01:25:45.090Z,16.45
2022-10-25T01:28:08.253Z,16.92
2022-10-25T01:30:22.523Z,16.58
2022-10-25T01:32:35.043Z,18.55
2022-10-25T01:35:02.504Z,22.97
2022-10-25T01:37:17.880Z,17.58
2022-10-25T01:39:31.184Z,17.38
2022-10-25T01:41:53.017Z,18.20
2022-10-25T01:44:13.952Z,16.38
2022-10-25T01:46:25.736Z,17.23
2022-10-25T01:48:43.470Z,19.40
2022-10-25T01:50:49.045Z,19.38
2022-10-25T01:52:52.390Z,18.83
2022-10-25T01:54:54.300Z,19.08
2022-10-25T01:57:21.016Z,19.40
2022-10-25T01:59:34.296Z,18.35
2022-10-25T02:01:57.532Z,18.60
2022-10-25T02:04:44.033Z,19.55
2022-10-25T02:07:10.973Z,20.98
2022-10-25T02:09:33.092Z,18.58
2022-10-25T02:11:36.443Z,17.77
2022-10-25T02:13:41.011Z,22.80
2022-10-25T02:16:07.916Z,21.25
2022-10-25T02:18:15.792Z,20.13
2022-10-25T02:20:22.584Z,18.75
2022-10-25T02:22:28.815Z,19.83
2022-10-25T02:24:31.972Z,21.08
2022-10-25T02:26:35.496Z,22.30
2022-10-25T02:28:40.276Z,20.23
2022-10-25T02:30:44.024Z,20.65
2022-10-25T02:32:45.965Z,19.90
2022-10-25T02:34:49.206Z,19.20
2022-10-25T02:36:53.107Z,20.40
2022-10-25T02:38:55.633Z,19.05
2022-10-25T02:41:00.151Z,20.65
2022-10-25T02:43:02.075Z,20.50
2022-10-25T02:45:04.273Z,20.05
2022-10-25T02:47:06.043Z,20.23
2022-10-25T02:49:07.732Z,21.15
2022-10-25T02:51:11.571Z,21.60
2022-10-25T02:53:13.241Z,20.52
2022-10-25T02:55:14.984Z,19.42
2022-10-25T02:57:16.912Z,20.63
2022-10-25T02:59:22.549Z,21.37
2022-10-25T03:01:25.252Z,20.73
2022-10-25T03:05:29.688Z,19.55
2022-10-25T03:07:31.355Z,19.77
2022-10-25T03:09:33.199Z,21.05
2022-10-25T03:11:34.926Z,19.38
2022-10-25T03:13:36.653Z,19.70
2022-10-25T03:15:38.538Z,19.95
2022-10-25T03:17:40.187Z,20.55
2022-10-25T03:19:42.312Z,20.40
2022-10-25T03:21:44.221Z,20.90
2022-10-25T03:23:45.881Z,22.40
2022-10-25T03:25:53.485Z,20.77
2022-10-25T03:27:56.238Z,21.40
2022-10-25T03:29:57.856Z,20.55
2022-10-25T03:31:59.531Z,21.20
2022-10-25T03:34:01.452Z,21.85
2022-10-25T03:36:03.352Z,21.30
2022-10-25T03:38:05.841Z,22.53
2022-10-25T03:40:08.249Z,21.85
2022-10-25T03:42:10.319Z,21.83
2022-10-25T03:44:11.965Z,21.77
2022-10-25T03:46:14.091Z,22.33
2022-10-25T03:48:15.756Z,22.38
2022-10-25T03:50:18.052Z,22.95
2022-10-25T03:52:20.059Z,23.33
2022-10-25T03:54:24.386Z,23.55
2022-10-25T03:56:28.632Z,22.65
2022-10-25T03:58:30.606Z,23.00
2022-10-25T04:00:32.477Z,23.63
2022-10-25T04:02:34.317Z,23.25
2022-10-25T04:04:36.715Z,23.77
2022-10-25T04:06:38.475Z,23.05
2022-10-25T04:08:40.316Z,22.05
2022-10-25T04:10:42.247Z,21.17
2022-10-25T04:12:43.940Z,22.13
2022-10-25T04:14:45.609Z,21.90
2022-10-25T04:16:47.524Z,21.55
2022-10-25T04:18:53.044Z,21.60
2022-10-25T04:20:54.701Z,21.13
2022-10-25T04:22:57.366Z,21.02
2022-10-25T04:24:59.167Z,20.40
2022-10-25T04:27:00.819Z,20.48
2022-10-25T04:29:04.368Z,20.13
2022-10-25T04:31:06.017Z,20.85
2022-10-25T04:33:07.933Z,20.70
2022-10-25T04:35:11.027Z,21.00
2022-10-25T04:37:12.640Z,19.88
2022-10-25T04:39:15.186Z,20.60
2022-10-25T04:41:17.986Z,20.10
2022-10-25T04:43:19.636Z,19.85
2022-10-25T04:45:21.390Z,20.58
2022-10-25T04:47:23.291Z,20.02
2022-10-25T04:49:25.152Z,20.73
2022-10-25T04:51:27.023Z,20.00
2022-10-25T04:53:29.022Z,21.03
2022-10-25T04:55:31.508Z,21.42
2022-10-25T04:57:33.575Z,21.70
2022-10-25T04:59:35.464Z,21.40
2022-10-25T05:01:37.437Z,23.35
2022-10-25T05:03:39.999Z,22.13
2022-10-25T05:05:41.940Z,21.08
2022-10-25T05:07:43.643Z,21.35
2022-10-25T05:09:47.425Z,20.60
2022-10-25T05:11:49.623Z,21.00
2022-10-25T05:13:51.325Z,22.65
2022-10-25T05:15:58.639Z,22.20
2022-10-25T05:18:01.421Z,21.63
2022-10-25T05:20:03.583Z,23.90
2022-10-25T05:22:05.259Z,22.40
2022-10-25T05:24:07.251Z,23.10
2022-10-25T05:26:08.959Z,23.70
2022-10-25T05:28:10.781Z,23.20
2022-10-25T05:30:12.861Z,23.70
2022-10-25T05:32:14.516Z,24.48
2022-10-25T05:34:16.243Z,23.65
2022-10-25T05:36:18.730Z,24.13
2022-10-25T05:38:20.497Z,23.02
2022-10-25T05:40:22.190Z,23.85
2022-10-25T05:42:24.228Z,24.40
2022-10-25T05:44:25.925Z,22.92
2022-10-25T05:46:27.563Z,24.85
2022-10-25T05:48:29.489Z,23.70
2022-10-25T05:50:31.245Z,24.00
2022-10-25T05:52:33.013Z,23.05
2022-10-25T05:54:35.124Z,49.75
2022-10-25T05:56:37.586Z,23.25
2022-10-25T05:58:39.825Z,25.10
2022-10-25T06:00:41.918Z,24.23
2022-10-25T06:02:43.747Z,24.23
2022-10-25T06:04:50.258Z,22.52
2022-10-25T06:06:54.235Z,23.33
2022-10-25T06:09:00.828Z,23.00
2022-10-25T06:11:05.403Z,22.73
2022-10-25T06:13:07.240Z,24.45
2022-10-25T06:15:09.567Z,21.60
2022-10-25T06:17:12.662Z,20.65
2022-10-25T06:19:14.571Z,17.83
2022-10-25T06:21:21.852Z,19.50
2022-10-25T06:23:23.534Z,18.23
2022-10-25T06:25:25.360Z,18.75
2022-10-25T06:27:27.274Z,17.02
2022-10-25T06:29:29.101Z,18.02
2022-10-25T06:31:32.286Z,17.77
2022-10-25T06:35:36.148Z,16.77
2022-10-25T06:37:38.009Z,16.70
2022-10-25T06:39:39.627Z,17.13
2022-10-25T06:41:41.610Z,16.00
2022-10-25T06:43:44.385Z,14.45
2022-10-25T06:45:46.045Z,15.00
2022-10-25T06:47:47.697Z,15.40
2022-10-25T06:49:49.553Z,16.17
2022-10-25T06:51:51.324Z,15.70
2022-10-25T06:53:54.930Z,15.43
2022-10-25T06:56:09.330Z,17.35
2022-10-25T06:58:12.288Z,15.45
2022-10-25T07:00:14.424Z,15.70
2022-10-25T07:02:16.515Z,14.85
2022-10-25T07:04:18.327Z,15.77
2022-10-25T07:06:27.818Z,14.88
2022-10-25T07:08:29.836Z,15.48
2022-10-25T07:10:31.528Z,14.15
2022-10-25T07:12:38.004Z,14.85
2022-10-25T07:14:39.974Z,13.75
2022-10-25T07:16:41.645Z,14.32
2022-10-25T07:18:44.302Z,13.43
2022-10-25T07:20:48.494Z,13.93
2022-10-25T07:22:50.421Z,12.63
2022-10-25T07:24:52.136Z,13.10
2022-10-25T07:26:54.261Z,12.23
2022-10-25T07:28:57.884Z,12.37
2022-10-25T07:30:59.582Z,13.05
2022-10-25T07:33:03.228Z,12.52
2022-10-25T07:35:05.511Z,12.73
2022-10-25T07:37:07.227Z,11.90
2022-10-25T07:39:09.348Z,12.80
2022-10-25T07:41:12.193Z,11.85
2022-10-25T07:43:14.165Z,12.48
2022-10-25T07:45:18.718Z,11.75
2022-10-25T07:47:24.317Z,11.85
2022-10-25T07:49:26.142Z,10.65
2022-10-25T07:51:27.915Z,10.98
2022-10-25T07:53:29.553Z,11.37
2022-10-25T07:55:31.679Z,10.85
2022-10-25T07:57:33.464Z,12.32
2022-10-25T07:59:35.325Z,11.95
2022-10-25T08:01:37.655Z,12.53
2022-10-25T08:03:39.492Z,12.55
2022-10-25T08:05:46.502Z,12.15
2022-10-25T08:07:50.329Z,12.45
2022-10-25T08:09:51.994Z,11.77
2022-10-25T08:11:54.664Z,12.48
2022-10-25T08:15:58.371Z,12.90
2022-10-25T08:18:01.804Z,13.43
2022-10-25T08:20:04.575Z,13.35
2022-10-25T08:22:06.245Z,12.50
2022-10-25T08:24:08.359Z,12.82
2022-10-25T08:26:10.651Z,11.95
2022-10-25T08:28:12.624Z,12.82
2022-10-25T08:30:14.445Z,13.17
2022-10-25T08:32:16.466Z,12.52
2022-10-25T08:34:18.200Z,12.45
2022-10-25T08:36:20.369Z,13.75
2022-10-25T08:38:22.313Z,12.93
2022-10-25T08:40:37.769Z,13.13
2022-10-25T08:43:07.667Z,13.10
2022-10-25T08:45:28.812Z,12.93
2022-10-25T08:47:39.349Z,13.30
2022-10-25T08:49:55.527Z,13.63
2022-10-25T08:51:59.400Z,13.65
2022-10-25T08:54:06.397Z,14.27
2022-10-25T08:56:17.722Z,13.80
2022-10-25T08:58:28.435Z,15.27
2022-10-25T09:00:36.612Z,14.75
2022-10-25T09:02:53.557Z,15.93
2022-10-25T09:04:55.478Z,15.50
2022-10-25T09:07:29.140Z,16.30
2022-10-25T09:09:33.806Z,17.42
2022-10-25T09:12:00.720Z,17.27
2022-10-25T09:14:22.270Z,16.08
2022-10-25T09:16:51.385Z,16.42
2022-10-25T09:18:55.355Z,14.75
2022-10-25T09:20:58.640Z,15.38
2022-10-25T09:23:15.437Z,14.93
2022-10-25T09:25:25.891Z,14.20
2022-10-25T09:30:37.873Z,15.65
2022-10-25T09:32:45.456Z,15.18
2022-10-25T09:34:47.850Z,14.82
2022-10-25T09:36:55.468Z,14.48
2022-10-25T09:39:03.098Z,14.55
2022-10-25T09:41:19.260Z,14.65
2022-10-25T09:43:28.066Z,15.02
2022-10-25T09:45:44.132Z,14.45
2022-10-25T09:48:03.041Z,14.20
2022-10-25T09:50:11.178Z,14.20
2022-10-25T09:52:30.280Z,14.27
2022-10-25T09:54:50.078Z,14.60
2022-10-25T09:56:51.966Z,14.82
2022-10-25T09:58:54.126Z,15.07
2022-10-25T10:01:09.149Z,16.75
2022-10-25T10:03:13.124Z,17.42
2022-10-25T10:05:17.745Z,17.65
2022-10-25T10:07:22.777Z,18.60
2022-10-25T10:09:28.632Z,18.45
2022-10-25T10:11:32.575Z,19.45
2022-10-25T10:13:40.360Z,22.00
2022-10-25T10:15:51.488Z,19.35
2022-10-25T10:18:26.829Z,19.17
2022-10-25T10:20:28.740Z,19.50
2022-10-25T10:22:30.726Z,19.60
2022-10-25T10:24:36.149Z,20.65
2022-10-25T10:26:47.604Z,20.45
2022-10-25T10:28:53.591Z,18.63
2022-10-25T10:30:58.566Z,19.30
2022-10-25T10:33:02.088Z,19.67
2022-10-25T10:35:06.972Z,18.70
2022-10-25T10:37:20.416Z,19.25
2022-10-25T10:39:23.579Z,18.65
2022-10-25T10:41:25.381Z,19.23
2022-10-25T10:43:30.718Z,17.02
2022-10-25T10:45:34.079Z,17.35
2022-10-25T10:47:50.997Z,18.00
2022-10-25T10:49:53.261Z,16.83
2022-10-25T10:51:56.758Z,16.30
2022-10-25T10:53:58.659Z,16.23
2022-10-25T10:56:02.948Z,17.45
2022-10-25T10:58:18.595Z,16.60
2022-10-25T11:00:27.621Z,15.75
2022-10-25T11:02:42.734Z,15.10
2022-10-25T11:04:49.594Z,15.90
2022-10-25T11:06:51.464Z,15.10
2022-10-25T11:09:19.418Z,14.88
2022-10-25T11:11:23.086Z,13.90
2022-10-25T11:13:25.857Z,13.77
2022-10-25T11:15:30.183Z,12.25
2022-10-25T11:17:36.653Z,11.73
2022-10-25T11:19:41.565Z,13.30
2022-10-25T11:21:58.863Z,12.23
2022-10-25T11:24:29.673Z,11.40
2022-10-25T11:26:58.163Z,11.02
2022-10-25T11:29:25.696Z,12.18
2022-10-25T11:31:46.220Z,11.32
2022-10-25T11:34:13.729Z,11.93
2022-10-25T11:36:28.288Z,11.73
2022-10-25T11:38:36.533Z,12.23
2022-10-25T11:40:52.699Z,11.80
2022-10-25T11:42:55.232Z,12.68
2022-10-25T11:45:19.028Z,12.47
2022-10-25T11:47:56.034Z,12.05
2022-10-25T11:50:39.982Z,12.40
2022-10-25T11:53:10.273Z,12.60
2022-10-25T11:55:39.584Z,12.48
2022-10-25T11:58:19.402Z,13.35
2022-10-25T12:00:37.756Z,13.35
2022-10-25T12:02:54.884Z,14.25
2022-10-25T12:05:20.089Z,13.55
2022-10-25T12:07:25.094Z,13.50
2022-10-25T12:09:43.882Z,15.15
2022-10-25T12:11:52.433Z,14.40
2022-10-25T12:14:06.400Z,14.63
2022-10-25T12:18:29.465Z,14.55
2022-10-25T12:20:32.773Z,13.75
2022-10-25T12:22:39.869Z,13.98
2022-10-25T12:24:52.796Z,15.30
2022-10-25T12:26:55.608Z,14.32
2022-10-25T12:29:03.036Z,14.15
2022-10-25T12:31:25.322Z,14.63
2022-10-25T12:33:41.195Z,14.93
2022-10-25T12:35:49.557Z,14.85
2022-10-25T12:38:06.973Z,20.63
2022-10-25T12:40:18.620Z,14.82
2022-10-25T12:42:34.758Z,14.73
2022-10-25T12:44:56.527Z,14.57
2022-10-25T12:47:23.089Z,14.02
2022-10-25T12:49:57.290Z,12.82
2022-10-25T12:52:05.399Z,12.57
2022-10-25T12:54:20.328Z,12.77
2022-10-25T12:56:46.749Z,12.70
2022-10-25T12:59:43.434Z,11.82
2022-10-25T13:02:04.873Z,12.02
2022-10-25T13:04:25.748Z,11.25
2022-10-25T13:06:48.171Z,10.95
2022-10-25T13:08:50.757Z,11.80
2022-10-25T13:13:14.431Z,11.30
2022-10-25T13:15:19.727Z,11.35
2022-10-25T13:17:21.918Z,11.70
2022-10-25T13:19:54.078Z,11.88
2022-10-25T13:21:55.175Z,12.50
2022-10-25T13:23:59.974Z,10.65
2022-10-25T13:26:08.275Z,12.20
2022-10-25T13:28:16.199Z,12.52
2022-10-25T13:32:42.404Z,10.77
2022-10-25T13:34:44.745Z,10.90
2022-10-25T13:36:54.121Z,11.65
2022-10-25T13:39:05.491Z,11.65
2022-10-25T13:41:10.260Z,10.77
2022-10-25T13:43:20.699Z,10.98
2022-10-25T13:45:43.002Z,11.73
2022-10-25T13:47:54.221Z,12.05
2022-10-25T13:49:56.722Z,11.98
2022-10-25T13:52:05.779Z,12.27
2022-10-25T13:54:12.047Z,12.65
2022-10-25T13:56:33.717Z,12.77
2022-10-25T13:58:45.018Z,11.65
2022-10-25T14:00:52.288Z,12.07
2022-10-25T14:03:05.818Z,12.00
2022-10-25T14:05:10.909Z,11.52
2022-10-25T14:07:51.466Z,11.88
2022-10-25T14:09:56.093Z,12.10
2022-10-25T14:12:00.917Z,11.57
2022-10-25T14:14:12.209Z,11.43
2022-10-25T14:16:25.927Z,10.57
2022-10-25T14:18:30.155Z,10.20
2022-10-25T14:20:32.686Z,10.57
2022-10-25T14:24:48.738Z,11.18
2022-10-25T14:26:58.913Z,11.68
2022-10-25T14:29:20.428Z,11.50
2022-10-25T14:31:22.490Z,11.73
2022-10-25T14:33:28.204Z,11.87
2022-10-25T14:35:46.987Z,11.77
2022-10-25T14:37:49.174Z,11.32
2022-10-25T14:39:52.954Z,11.00
2022-10-25T14:42:02.351Z,10.90
2022-10-25T14:44:20.858Z,12.30
2022-10-25T14:46:25.621Z,10.93
2022-10-25T14:48:28.334Z,11.57
2022-10-25T14:50:30.178Z,11.15
2022-10-25T14:52:32.359Z,11.18
2022-10-25T14:54:36.490Z,10.68
2022-10-25T14:57:00.812Z,11.80
2022-10-25T14:59:05.150Z,11.15
2022-10-25T15:01:10.481Z,11.75
2022-10-25T15:03:13.674Z,11.65
2022-10-25T15:05:24.156Z,11.50
2022-10-25T15:07:44.053Z,11.60
2022-10-25T15:09:50.474Z,11.98
2022-10-25T15:12:05.954Z,11.40
2022-10-25T15:14:21.971Z,11.18
2022-10-25T15:16:33.095Z,11.75
2022-10-25T15:18:38.443Z,11.45
2022-10-25T15:20:40.777Z,11.65
2022-10-25T15:22:45.540Z,11.67
2022-10-25T15:24:49.050Z,11.50
2022-10-25T15:27:02.432Z,11.38
2022-10-25T15:29:04.344Z,11.60
2022-10-25T15:31:07.452Z,12.33
2022-10-25T15:33:12.996Z,12.10
2022-10-25T15:35:24.369Z,12.63
2022-10-25T15:37:29.775Z,12.90
2022-10-25T15:39:35.426Z,13.13
2022-10-25T15:41:38.592Z,12.63
2022-10-25T15:43:40.474Z,11.90
2022-10-25T15:45:44.166Z,12.23
2022-10-25T15:47:47.470Z,12.00
2022-10-25T15:49:53.448Z,11.60
2022-10-25T15:51:55.820Z,10.82
2022-10-25T15:53:57.725Z,11.47
2022-10-25T15:56:01.841Z,11.35
2022-10-25T15:58:09.634Z,11.60
2022-10-25T16:00:18.160Z,11.95
2022-10-25T16:02:27.208Z,12.48
2022-10-25T16:04:29.781Z,11.70
2022-10-25T16:06:32.156Z,13.17
2022-10-25T16:10:58.135Z,12.25
2022-10-25T16:13:05.942Z,12.93
2022-10-25T16:15:14.237Z,12.43
2022-10-25T16:17:16.343Z,13.73
2022-10-25T16:19:20.346Z,12.43
2022-10-25T16:21:22.651Z,13.20
2022-10-25T16:23:25.951Z,12.88
2022-10-25T16:27:35.131Z,11.75
2022-10-25T16:29:37.233Z,11.25
2022-10-25T16:31:39.161Z,12.30
2022-10-25T16:35:44.304Z,12.15
2022-10-25T16:37:46.341Z,11.95
2022-10-25T16:39:48.579Z,12.60
2022-10-25T16:41:52.654Z,12.68
2022-10-25T16:43:55.430Z,12.00
2022-10-25T16:45:57.396Z,11.52
2022-10-25T16:48:00.395Z,12.65
2022-10-25T16:52:06.238Z,21.38
2022-10-25T16:54:08.736Z,13.35
2022-10-25T16:56:11.625Z,14.02
2022-10-25T16:58:13.535Z,14.40
2022-10-25T17:00:16.354Z,14.48
2022-10-25T17:02:21.625Z,13.50
2022-10-25T17:04:23.965Z,12.45
2022-10-25T17:06:40.708Z,12.90
2022-10-25T17:08:44.034Z,11.55
2022-10-25T17:10:51.281Z,13.13
2022-10-25T17:13:03.994Z,13.25
2022-10-25T17:15:08.779Z,11.50
2022-10-25T17:17:10.956Z,13.05
2022-10-25T17:19:13.535Z,11.77
2022-10-25T17:21:17.092Z,10.77
2022-10-25T17:23:19.665Z,10.52
2022-10-25T17:25:21.817Z,11.10
2022-10-25T17:27:23.654Z,12.73
2022-10-25T17:29:25.596Z,11.68
2022-10-25T17:31:32.758Z,12.52
2022-10-25T17:33:34.671Z,20.27
2022-10-25T17:35:41.251Z,14.68
2022-10-25T17:37:44.556Z,15.27
2022-10-25T17:39:46.886Z,15.23
2022-10-25T17:41:48.735Z,14.70
2022-10-25T17:43:54.495Z,14.32
2022-10-25T17:46:03.481Z,14.98
2022-10-25T17:48:05.979Z,15.40
2022-10-25T17:50:12.870Z,14.95
2022-10-25T17:52:14.849Z,14.95
2022-10-25T17:54:17.917Z,14.32
2022-10-25T17:56:21.956Z,14.50
2022-10-25T17:58:24.053Z,14.07
2022-10-25T18:00:25.891Z,14.10
2022-10-25T18:02:28.295Z,13.13
2022-10-25T18:04:40.762Z,13.47
2022-10-25T18:06:52.219Z,13.80
2022-10-25T18:08:59.358Z,14.60
2022-10-25T18:11:08.287Z,14.57
2022-10-25T18:13:10.466Z,15.50
2022-10-25T18:15:12.721Z,15.90
2022-10-25T18:17:14.770Z,16.25
2022-10-25T18:19:16.815Z,17.67
2022-10-25T18:21:19.022Z,18.88
2022-10-25T18:23:21.007Z,18.70
2022-10-25T18:25:23.230Z,75.55
2022-10-25T18:27:25.387Z,19.48
2022-10-25T18:29:27.577Z,20.88
2022-10-25T18:31:29.590Z,20.58
2022-10-25T18:33:33.465Z,21.42
2022-10-25T18:35:35.527Z,23.05
2022-10-25T18:37:38.877Z,23.20
2022-10-25T18:39:41.162Z,24.42
2022-10-25T18:41:44.313Z,24.08
2022-10-25T18:43:48.435Z,24.33
2022-10-25T18:45:55.983Z,23.48
2022-10-25T18:47:59.161Z,23.65
2022-10-25T18:50:01.008Z,22.40
2022-10-25T18:52:03.653Z,22.30
2022-10-25T18:54:05.514Z,21.45
2022-10-25T18:56:12.423Z,22.77
2022-10-25T18:58:15.431Z,22.65
2022-10-25T19:00:17.653Z,22.83
2022-10-25T19:02:19.758Z,22.33
2022-10-25T19:04:22.994Z,23.00
2022-10-25T19:06:25.333Z,22.95
2022-10-25T19:08:27.188Z,21.75
2022-10-25T19:10:29.457Z,22.65
2022-10-25T19:12:31.321Z,26.15
2022-10-25T19:14:33.199Z,22.48
2022-10-25T19:16:40.828Z,21.63
2022-10-25T19:18:42.759Z,21.92
2022-10-25T19:20:46.812Z,21.77
2022-10-25T19:22:49.628Z,21.45
2022-10-25T19:24:51.475Z,20.55
2022-10-25T19:26:53.637Z,19.75
2022-10-25T19:29:01.231Z,21.15
2022-10-25T19:31:08.720Z,20.48
2022-10-25T19:33:11.870Z,21.35
2022-10-25T19:35:14.490Z,20.90
2022-10-25T19:37:18.126Z,22.10
2022-10-25T19:39:20.131Z,21.75
2022-10-25T19:41:24.343Z,22.48
2022-10-25T19:43:26.748Z,23.17
2022-10-25T19:45:29.839Z,24.85
2022-10-25T19:47:35.391Z,25.25
2022-10-25T19:49:38.667Z,25.00
2022-10-25T19:51:41.430Z,26.65
2022-10-25T19:53:43.988Z,26.10
2022-10-25T19:55:58.179Z,27.88
2022-10-25T19:58:02.057Z,26.40
2022-10-25T20:00:07.629Z,25.48
2022-10-25T20:02:13.098Z,25.83
2022-10-25T20:04:15.173Z,26.45
2022-10-25T20:06:23.518Z,25.67
2022-10-25T20:08:27.090Z,25.77
2022-10-25T20:10:28.999Z,25.13
2022-10-25T20:12:33.967Z,26.13
2022-10-25T20:14:37.834Z,26.80
2022-10-25T20:16:39.843Z,26.20
2022-10-25T20:18:42.841Z,25.98
2022-10-25T20:20:44.949Z,26.30
2022-10-25T20:22:46.769Z,25.13
2022-10-25T20:24:49.009Z,26.38
2022-10-25T20:26:53.293Z,24.42
2022-10-25T20:28:57.207Z,24.58
2022-10-25T20:31:03.435Z,23.70
2022-10-25T20:33:06.879Z,24.77
2022-10-25T20:35:08.778Z,24.02
2022-10-25T20:37:11.023Z,25.23
2022-10-25T20:39:13.600Z,24.30
2022-10-25T20:41:18.468Z,24.35
2022-10-25T20:43:20.572Z,24.60
2022-10-25T20:45:22.440Z,24.42
2022-10-25T20:47:24.259Z,24.85
2022-10-25T20:49:26.836Z,23.75
2022-10-25T20:51:29.165Z,25.25
2022-10-25T20:53:31.144Z,25.02
2022-10-25T20:55:33.434Z,26.42
2022-10-25T20:57:37.379Z,25.25
2022-10-25T20:59:39.353Z,26.58
2022-10-25T21:01:41.635Z,26.13
2022-10-25T21:03:43.692Z,25.63
2022-10-25T21:05:46.334Z,26.67
2022-10-25T21:08:21.331Z,30.45
2022-10-25T21:10:23.338Z,27.17
2022-10-25T21:12:26.688Z,27.73
2022-10-25T21:14:28.597Z,27.65
2022-10-25T21:16:30.452Z,26.55
2022-10-25T21:18:33.114Z,29.13
2022-10-25T21:20:37.410Z,28.38
2022-10-25T21:22:41.211Z,25.75
2022-10-25T21:24:44.287Z,27.23
2022-10-25T21:26:47.586Z,27.13
2022-10-25T21:28:49.564Z,27.30
2022-10-25T21:30:52.101Z,27.30
2022-10-25T21:32:53.978Z,25.92
2022-10-25T21:34:56.205Z,25.95
2022-10-25T21:36:58.632Z,26.50
2022-10-25T21:39:00.760Z,26.73
2022-10-25T21:41:11.692Z,24.80
2022-10-25T21:43:13.860Z,25.52
2022-10-25T21:45:15.831Z,25.00
2022-10-25T21:47:17.700Z,25.35
2022-10-25T21:49:20.003Z,26.30
2022-10-25T21:51:24.417Z,25.30
2022-10-25T21:53:26.310Z,25.30
2022-10-25T21:55:28.932Z,25.58
2022-10-25T21:57:30.786Z,24.92
2022-10-25T21:59:32.807Z,24.47
2022-10-25T22:01:35.244Z,24.77
2022-10-25T22:03:37.442Z,26.17
2022-10-25T22:05:43.355Z,25.45
2022-10-25T22:07:45.677Z,24.98
2022-10-25T22:09:47.702Z,24.83
2022-10-25T22:11:51.755Z,24.60
2022-10-25T22:13:56.342Z,24.92
2022-10-25T22:16:05.541Z,24.50
2022-10-25T22:18:07.400Z,24.83
2022-10-25T22:20:10.310Z,25.42
2022-10-25T22:22:12.162Z,32.70
2022-10-25T22:24:14.047Z,24.27
2022-10-25T22:26:18.472Z,24.80
2022-10-25T22:28:20.320Z,25.25
2022-10-25T22:30:22.214Z,24.58
2022-10-25T22:32:24.482Z,24.42
2022-10-25T22:34:27.666Z,25.17
2022-10-25T22:36:33.051Z,25.33
2022-10-25T22:38:35.859Z,24.65
2022-10-25T22:40:37.783Z,24.77
2022-10-25T22:42:39.664Z,24.85
2022-10-25T22:44:41.800Z,26.10
2022-10-25T22:46:43.727Z,25.13
2022-10-25T22:48:48.826Z,25.98
2022-10-25T22:52:53.948Z,26.42
2022-10-25T22:54:55.967Z,25.45
2022-10-25T22:56:58.196Z,25.85
2022-10-25T22:59:02.467Z,27.10
2022-10-25T23:01:06.458Z,26.73
2022-10-25T23:03:08.639Z,26.90
2022-10-25T23:05:10.548Z,26.90
2022-10-25T23:07:12.509Z,27.48
2022-10-25T23:09:14.740Z,27.48
2022-10-25T23:11:19.025Z,28.98
2022-10-25T23:13:20.824Z,27.55
2022-10-25T23:15:23.051Z,28.70
2022-10-25T23:17:25.204Z,28.50
2022-10-25T23:19:27.220Z,28.20
2022-10-25T23:21:31.023Z,29.23
2022-10-25T23:23:35.620Z,28.73
2022-10-25T23:25:37.511Z,29.15
2022-10-25T23:27:39.619Z,28.35
2022-10-25T23:29:41.475Z,29.85
2022-10-25T23:31:43.297Z,28.52
2022-10-25T23:33:45.912Z,29.92
2022-10-25T23:35:47.711Z,29.92
2022-10-25T23:37:50.119Z,28.65
2022-10-25T23:39:52.380Z,28.63
2022-10-25T23:41:56.977Z,30.38
2022-10-25T23:43:59.138Z,28.80
2022-10-25T23:46:01.727Z,29.30
2022-10-25T23:48:03.617Z,28.85
2022-10-25T23:50:05.999Z,29.65
2022-10-25T23:52:08.146Z,29.20
2022-10-25T23:54:10.078Z,28.27
2022-10-25T23:56:13.240Z,29.25
2022-10-25T23:58:15.793Z,29.40
